首页
METAR-TAF:

METAR-TAF

机场 :

開普敦, 南非共和國

开普敦国际机场

纬度: 33-59S, 经度: 018-36E, 海拔: 42米

当前天气观测

该预报发布于28分钟前的14:00 UTC
风速19节,风向西北
温度 25°C
湿度 61%
气压 1008 hPa
能见度10公里或以上
少量云层高于3000英尺

METAR: FACT 221400Z 31019KT 9999 FEW030 25/17 Q1008 NOSIG

时间: 16:28 (14:28 UTC)

预报

该预报发布于7小时和58分钟前的06:30 UTC
预报有效从22日的 06点(UTC)到 23日的 12点(UTC)
风速17节,风向北转西北
能见度10公里或以上
少量云层高于2000英尺
多云层高于3500英尺
几率 30% :
短暂存在
从 22日的 10点(UTC)到 22日的 18点(UTC)
多云层高于1400英尺
短暂存在
从 22日的 18点(UTC)到 23日的 06点(UTC)
能見度: 3500
多云层高于1000英尺
小雨

TAF: FACT 220630Z 2206/2312 34017KT 9999 FEW020 BKN035 PROB30 TEMPO 2210/2218 BKN014 TEMPO 2218/2306 3500 -RA BKN010 TX27/2212Z TN19/2304Z

超过4000个机场的气象观测和天气预报(METAR&TAF报告)。

可查询的气象台以黄色和红色小点在地图上表示。

将鼠标移到小点上方,可查看气象台名称。

然后点击查看天气观测和预报。

如需切换地图:点击带黑十字的绿色按钮放大地图;点击带横线的绿色按钮缩小地图;或者点击绿色箭头查看邻近地区的地图。


METAR-TAF: